createdAt,value
2023-04-09T00:01:06.236Z,26.88
2023-04-09T00:03:37.181Z,25.85
2023-04-09T00:06:05.435Z,27.23
2023-04-09T00:08:32.440Z,26.90
2023-04-09T00:10:59.867Z,27.65
2023-04-09T00:13:38.612Z,24.00
2023-04-09T00:16:07.498Z,27.02
2023-04-09T00:18:34.514Z,28.55
2023-04-09T00:21:01.690Z,28.10
2023-04-09T00:23:28.776Z,26.67
2023-04-09T00:25:55.762Z,28.05
2023-04-09T00:28:22.658Z,27.98
2023-04-09T00:30:49.686Z,27.50
2023-04-09T00:33:16.554Z,25.67
2023-04-09T00:35:43.482Z,24.95
2023-04-09T00:38:13.357Z,21.60
2023-04-09T00:40:41.186Z,23.17
2023-04-09T00:43:08.063Z,21.88
2023-04-09T00:45:35.338Z,20.27
2023-04-09T00:48:02.586Z,20.40
2023-04-09T00:50:29.538Z,21.35
2023-04-09T00:52:56.671Z,20.05
2023-04-09T00:55:24.204Z,16.58
2023-04-09T00:57:51.118Z,17.25
2023-04-09T01:00:18.007Z,18.88
2023-04-09T01:02:46.644Z,17.70
2023-04-09T01:05:14.779Z,21.10
2023-04-09T01:08:16.216Z,18.20
2023-04-09T01:10:55.836Z,15.73
2023-04-09T01:13:31.103Z,15.25
2023-04-09T01:16:01.330Z,18.35
2023-04-09T01:18:52.670Z,15.82
2023-04-09T01:21:23.483Z,15.15
2023-04-09T01:24:21.643Z,16.40
2023-04-09T01:27:04.105Z,14.30
2023-04-09T01:29:34.603Z,14.02
2023-04-09T01:32:05.711Z,14.55
2023-04-09T01:34:33.502Z,16.45
2023-04-09T01:37:03.495Z,16.55
2023-04-09T01:39:33.487Z,20.70
2023-04-09T01:42:03.977Z,18.80
2023-04-09T01:44:31.762Z,14.18
2023-04-09T01:47:00.488Z,16.05
2023-04-09T01:49:28.718Z,16.77
2023-04-09T01:51:55.814Z,14.30
2023-04-09T01:54:22.874Z,13.75
2023-04-09T01:56:49.910Z,13.65
2023-04-09T01:59:17.020Z,15.10
2023-04-09T02:01:50.406Z,11.80
2023-04-09T02:04:28.309Z,12.70
2023-04-09T02:07:21.448Z,14.20
2023-04-09T02:09:49.483Z,13.50
2023-04-09T02:12:19.066Z,12.35
2023-04-09T02:14:52.146Z,15.07
2023-04-09T02:17:22.520Z,19.15
2023-04-09T02:19:49.458Z,14.07
2023-04-09T02:22:17.588Z,14.93
2023-04-09T02:24:46.107Z,12.32
2023-04-09T02:27:13.202Z,15.63
2023-04-09T02:29:41.018Z,12.63
2023-04-09T02:32:08.172Z,14.95
2023-04-09T02:34:35.241Z,13.30
2023-04-09T02:37:02.200Z,13.10
2023-04-09T02:39:29.095Z,15.35
2023-04-09T02:41:56.457Z,14.65
2023-04-09T02:44:23.461Z,18.33
2023-04-09T02:46:51.867Z,16.60
2023-04-09T02:49:21.562Z,15.35
2023-04-09T02:51:48.430Z,17.48
2023-04-09T02:54:15.513Z,19.95
2023-04-09T02:56:44.582Z,18.00
2023-04-09T02:59:11.479Z,18.05
2023-04-09T03:01:38.513Z,17.60
2023-04-09T03:04:05.979Z,19.38
2023-04-09T03:06:32.975Z,18.20
2023-04-09T03:08:59.856Z,19.60
2023-04-09T03:11:27.039Z,18.10
2023-04-09T03:14:02.709Z,15.48
2023-04-09T03:16:29.607Z,16.80
2023-04-09T03:18:56.554Z,19.27
2023-04-09T03:21:23.477Z,17.75
2023-04-09T03:23:50.418Z,21.08
2023-04-09T03:26:17.341Z,16.15
2023-04-09T03:28:44.178Z,14.63
2023-04-09T03:31:11.374Z,20.65
2023-04-09T03:33:38.401Z,17.27
2023-04-09T03:36:09.163Z,21.08
2023-04-09T03:38:38.717Z,19.50
2023-04-09T03:41:05.779Z,22.80
2023-04-09T03:43:32.599Z,20.77
2023-04-09T03:45:59.454Z,21.48
2023-04-09T03:48:26.377Z,21.35
2023-04-09T03:50:53.807Z,24.27
2023-04-09T03:53:20.735Z,20.83
2023-04-09T03:55:47.483Z,21.77
2023-04-09T03:58:14.275Z,22.08
2023-04-09T04:00:41.171Z,24.05
2023-04-09T04:03:08.215Z,22.63
2023-04-09T04:05:35.458Z,22.58
2023-04-09T04:08:02.277Z,20.83
2023-04-09T04:10:29.187Z,22.23
2023-04-09T04:12:56.071Z,21.08
2023-04-09T04:15:22.872Z,26.08
2023-04-09T04:17:49.801Z,32.97
2023-04-09T04:20:16.827Z,22.50
2023-04-09T04:22:43.698Z,24.25
2023-04-09T04:25:10.842Z,19.85
2023-04-09T04:27:37.886Z,18.88
2023-04-09T04:30:05.332Z,18.92
2023-04-09T04:32:32.200Z,20.10
2023-04-09T04:34:59.064Z,20.92
2023-04-09T04:37:26.080Z,19.45
2023-04-09T04:39:52.914Z,22.55
2023-04-09T04:42:19.867Z,16.75
2023-04-09T04:44:46.835Z,17.63
2023-04-09T04:47:13.663Z,18.50
2023-04-09T04:49:40.530Z,24.15
2023-04-09T04:52:07.848Z,23.33
2023-04-09T04:54:34.681Z,20.92
2023-04-09T04:57:01.652Z,21.90
2023-04-09T04:59:28.988Z,19.88
2023-04-09T05:01:56.115Z,22.08
2023-04-09T05:04:23.259Z,19.77
2023-04-09T05:06:50.492Z,17.50
2023-04-09T05:09:17.345Z,22.63
2023-04-09T05:11:44.186Z,18.38
2023-04-09T05:14:11.104Z,21.65
2023-04-09T05:16:37.998Z,18.63
2023-04-09T05:19:04.939Z,18.83
2023-04-09T05:21:32.222Z,18.75
2023-04-09T05:23:59.189Z,21.23
2023-04-09T05:26:26.021Z,18.95
2023-04-09T05:28:53.149Z,20.05
2023-04-09T05:31:20.416Z,18.98
2023-04-09T05:33:47.324Z,21.02
2023-04-09T05:36:18.322Z,21.33
2023-04-09T05:38:46.682Z,18.92
2023-04-09T05:41:13.959Z,17.48
2023-04-09T05:43:41.048Z,20.38
2023-04-09T05:46:07.957Z,19.73
2023-04-09T05:48:37.760Z,22.85
2023-04-09T05:51:04.817Z,22.38
2023-04-09T05:53:32.492Z,20.15
2023-04-09T05:55:59.346Z,19.27
2023-04-09T05:58:26.380Z,20.15
2023-04-09T06:00:53.368Z,20.83
2023-04-09T06:03:20.789Z,21.20
2023-04-09T06:05:54.249Z,20.95
2023-04-09T06:08:21.134Z,19.95
2023-04-09T06:10:48.092Z,20.10
2023-04-09T06:13:15.248Z,17.55
2023-04-09T06:15:42.295Z,20.80
2023-04-09T06:18:09.336Z,18.38
2023-04-09T06:20:36.334Z,20.33
2023-04-09T06:23:03.216Z,22.58
2023-04-09T06:25:30.171Z,20.67
2023-04-09T06:27:57.341Z,18.60
2023-04-09T06:30:24.292Z,19.67
2023-04-09T06:32:55.068Z,19.90
2023-04-09T06:35:22.507Z,18.65
2023-04-09T06:37:49.420Z,15.80
2023-04-09T06:40:16.531Z,15.70
2023-04-09T06:42:43.272Z,18.45
2023-04-09T06:45:10.372Z,20.27
2023-04-09T06:47:37.269Z,15.88
2023-04-09T06:50:04.613Z,16.73
2023-04-09T06:52:31.404Z,16.63
2023-04-09T06:54:58.166Z,16.75
2023-04-09T06:57:26.380Z,18.75
2023-04-09T06:59:53.189Z,15.60
2023-04-09T07:02:20.555Z,12.70
2023-04-09T07:04:47.835Z,15.40
2023-04-09T07:07:14.898Z,14.70
2023-04-09T07:09:44.616Z,13.77
2023-04-09T07:12:11.519Z,13.38
2023-04-09T07:14:38.338Z,13.85
2023-04-09T07:17:05.439Z,10.80
2023-04-09T07:19:32.207Z,12.07
2023-04-09T07:21:59.041Z,10.57
2023-04-09T07:24:25.978Z,10.40
2023-04-09T07:26:53.407Z,10.77
2023-04-09T07:29:20.866Z,11.00
2023-04-09T07:31:47.984Z,10.67
2023-04-09T07:34:15.052Z,10.50
2023-04-09T07:36:48.677Z,10.80
2023-04-09T07:39:15.737Z,10.33
2023-04-09T07:41:42.736Z,10.50
2023-04-09T07:44:09.615Z,9.07
2023-04-09T07:46:36.602Z,9.83
2023-04-09T07:49:03.560Z,9.93
2023-04-09T07:51:31.362Z,9.53
2023-04-09T07:53:58.169Z,9.40
2023-04-09T07:56:25.017Z,11.00
2023-04-09T07:58:52.046Z,8.77
2023-04-09T08:01:21.675Z,8.10
2023-04-09T08:03:48.674Z,8.87
2023-04-09T08:06:15.530Z,8.47
2023-04-09T08:08:43.045Z,9.17
2023-04-09T08:11:09.973Z,10.37
2023-04-09T08:13:36.812Z,10.57
2023-04-09T08:16:04.073Z,9.47
2023-04-09T08:18:31.298Z,9.63
2023-04-09T08:20:58.276Z,9.70
2023-04-09T08:23:25.357Z,9.63
2023-04-09T08:25:52.156Z,10.33
2023-04-09T08:28:19.073Z,9.87
2023-04-09T08:30:47.734Z,11.13
2023-04-09T08:33:15.024Z,10.43
2023-04-09T08:35:42.588Z,10.00
2023-04-09T08:38:09.435Z,10.73
2023-04-09T08:40:36.748Z,10.30
2023-04-09T08:43:08.010Z,10.67
2023-04-09T08:45:35.216Z,10.53
2023-04-09T08:48:03.940Z,10.40
2023-04-09T08:50:32.623Z,9.57
2023-04-09T08:53:02.397Z,10.10
2023-04-09T08:55:31.222Z,11.50
2023-04-09T08:57:58.428Z,10.43
2023-04-09T09:00:25.312Z,10.80
2023-04-09T09:03:09.341Z,9.90
2023-04-09T09:05:41.176Z,10.40
2023-04-09T09:08:09.745Z,11.70
2023-04-09T09:10:51.741Z,12.23
2023-04-09T09:13:24.315Z,12.77
2023-04-09T09:15:55.034Z,14.03
2023-04-09T09:18:46.992Z,16.47
2023-04-09T09:21:17.812Z,15.23
2023-04-09T09:23:45.419Z,15.33
2023-04-09T09:26:18.220Z,15.57
2023-04-09T09:28:49.132Z,15.43
2023-04-09T09:31:19.714Z,14.93
2023-04-09T09:33:48.318Z,15.00
2023-04-09T09:36:16.648Z,16.43
2023-04-09T09:38:57.167Z,14.60
2023-04-09T09:41:24.933Z,14.87
2023-04-09T09:43:52.073Z,16.50
2023-04-09T09:46:21.077Z,15.83
2023-04-09T09:48:48.003Z,16.50
2023-04-09T09:51:15.423Z,18.83
2023-04-09T09:53:46.577Z,18.17
2023-04-09T09:56:22.259Z,17.47
2023-04-09T09:59:07.528Z,15.83
2023-04-09T10:01:36.743Z,16.30
2023-04-09T10:04:07.452Z,15.13
2023-04-09T10:06:34.855Z,16.17
2023-04-09T10:09:06.829Z,15.43
2023-04-09T10:11:35.978Z,17.13
2023-04-09T10:14:03.210Z,16.70
2023-04-09T10:16:31.366Z,16.53
2023-04-09T10:18:59.725Z,15.60
2023-04-09T10:21:47.720Z,18.20
2023-04-09T10:24:16.094Z,15.37
2023-04-09T10:26:47.113Z,16.73
2023-04-09T10:29:16.693Z,13.47
2023-04-09T10:31:55.181Z,12.03
2023-04-09T10:34:24.727Z,13.57
2023-04-09T10:36:57.699Z,15.60
2023-04-09T10:39:28.640Z,14.77
2023-04-09T10:41:57.411Z,14.37
2023-04-09T10:44:27.092Z,15.33
2023-04-09T10:46:55.232Z,15.50
2023-04-09T10:49:26.792Z,15.50
2023-04-09T10:52:12.327Z,15.93
2023-04-09T10:54:46.566Z,16.03
2023-04-09T10:57:14.375Z,15.47
2023-04-09T10:59:46.827Z,14.83
2023-04-09T11:02:42.305Z,15.30
2023-04-09T11:05:24.366Z,14.20
2023-04-09T11:08:14.075Z,17.03
2023-04-09T11:10:44.053Z,16.73
2023-04-09T11:13:18.571Z,15.43
2023-04-09T11:15:46.138Z,14.80
2023-04-09T11:18:31.508Z,14.00
2023-04-09T11:21:00.427Z,13.37
2023-04-09T11:23:28.271Z,14.73
2023-04-09T11:25:55.582Z,15.63
2023-04-09T11:28:24.208Z,17.00
2023-04-09T11:30:52.205Z,14.97
2023-04-09T11:33:20.291Z,15.80
2023-04-09T11:35:47.917Z,15.90
2023-04-09T11:38:14.994Z,17.57
2023-04-09T11:40:49.534Z,16.90
2023-04-09T11:43:17.774Z,14.33
2023-04-09T11:45:47.330Z,17.70
2023-04-09T11:48:15.105Z,15.70
2023-04-09T11:50:42.056Z,18.70
2023-04-09T11:53:19.546Z,17.63
2023-04-09T11:55:51.703Z,17.40
2023-04-09T11:58:19.144Z,20.13
2023-04-09T12:00:46.146Z,20.47
2023-04-09T12:03:13.588Z,20.37
2023-04-09T12:05:50.616Z,20.70
2023-04-09T12:08:23.695Z,20.47
2023-04-09T12:10:53.361Z,22.90
2023-04-09T12:13:21.286Z,22.70
2023-04-09T12:15:49.936Z,20.30
2023-04-09T12:18:16.894Z,21.97
2023-04-09T12:20:46.613Z,21.17
2023-04-09T12:23:13.896Z,22.10
2023-04-09T12:25:42.942Z,25.03
2023-04-09T12:28:12.219Z,22.23
2023-04-09T12:30:39.232Z,20.57
2023-04-09T12:33:08.250Z,19.40
2023-04-09T12:35:38.101Z,18.60
2023-04-09T12:38:05.378Z,17.00
2023-04-09T12:40:32.293Z,17.37
2023-04-09T12:42:59.243Z,15.87
2023-04-09T12:45:26.433Z,17.50
2023-04-09T12:47:53.523Z,16.20
2023-04-09T12:50:20.521Z,15.43
2023-04-09T12:52:47.678Z,18.03
2023-04-09T12:55:15.133Z,14.60
2023-04-09T12:57:47.195Z,14.93
2023-04-09T13:00:14.738Z,18.30
2023-04-09T13:02:41.874Z,17.40
2023-04-09T13:05:09.090Z,18.10
2023-04-09T13:07:36.202Z,19.10
2023-04-09T13:10:03.463Z,19.03
2023-04-09T13:12:30.609Z,18.00
2023-04-09T13:14:57.562Z,19.53
2023-04-09T13:17:24.641Z,18.47
2023-04-09T13:19:51.945Z,17.23
2023-04-09T13:22:19.345Z,16.10
2023-04-09T13:24:46.311Z,19.90
2023-04-09T13:27:14.819Z,16.30
2023-04-09T13:29:42.007Z,15.77
2023-04-09T13:32:11.205Z,18.13
2023-04-09T13:34:39.670Z,20.27
2023-04-09T13:37:06.852Z,19.70
2023-04-09T13:39:33.972Z,21.70
2023-04-09T13:42:13.689Z,19.07
2023-04-09T13:44:42.612Z,19.23
2023-04-09T13:47:11.428Z,18.83
2023-04-09T13:49:38.630Z,19.97
2023-04-09T13:52:05.889Z,23.40
2023-04-09T13:54:33.603Z,18.97
2023-04-09T13:57:00.692Z,15.47
2023-04-09T13:59:27.777Z,15.30
2023-04-09T14:01:54.785Z,14.00
2023-04-09T14:04:21.961Z,14.57
2023-04-09T14:06:48.863Z,15.80
2023-04-09T14:09:16.325Z,14.00
2023-04-09T14:11:43.258Z,15.87
2023-04-09T14:14:10.965Z,14.30
2023-04-09T14:16:37.928Z,14.90
2023-04-09T14:19:04.814Z,14.07
2023-04-09T14:21:32.078Z,15.50
2023-04-09T14:23:58.940Z,8.83
2023-04-09T14:26:26.826Z,8.90
2023-04-09T14:28:53.819Z,9.47
2023-04-09T14:31:21.567Z,10.50
2023-04-09T14:33:49.114Z,11.50
2023-04-09T14:36:16.831Z,10.73
2023-04-09T14:38:43.913Z,8.53
2023-04-09T14:41:10.890Z,11.53
2023-04-09T14:43:37.843Z,10.30
2023-04-09T14:46:06.509Z,8.83
2023-04-09T14:48:33.530Z,8.57
2023-04-09T14:51:00.398Z,9.67
2023-04-09T14:53:27.355Z,8.57
2023-04-09T14:55:54.208Z,9.17
2023-04-09T14:58:21.514Z,8.00
2023-04-09T15:00:48.933Z,9.50
2023-04-09T15:03:16.005Z,9.30
2023-04-09T15:05:43.103Z,10.83
2023-04-09T15:08:10.117Z,11.83
2023-04-09T15:10:37.163Z,12.37
2023-04-09T15:13:04.044Z,10.33
2023-04-09T15:15:31.237Z,9.67
2023-04-09T15:17:58.200Z,10.57
2023-04-09T15:20:25.086Z,11.73
2023-04-09T15:22:51.926Z,9.83
2023-04-09T15:25:18.937Z,9.03
2023-04-09T15:27:46.898Z,9.77
2023-04-09T15:30:13.800Z,9.00
2023-04-09T15:32:40.838Z,10.20
2023-04-09T15:35:08.303Z,10.00
2023-04-09T15:37:35.091Z,12.20
2023-04-09T15:40:02.131Z,9.33
2023-04-09T15:42:29.002Z,10.00
2023-04-09T15:44:55.912Z,8.97
2023-04-09T15:47:22.846Z,8.80
2023-04-09T15:49:49.796Z,8.87
2023-04-09T15:52:16.674Z,8.50
2023-04-09T15:54:43.492Z,9.33
2023-04-09T15:57:10.408Z,10.40
2023-04-09T15:59:37.316Z,10.87
2023-04-09T16:02:04.743Z,11.53
2023-04-09T16:04:31.734Z,11.60
2023-04-09T16:06:58.704Z,11.20
2023-04-09T16:09:25.749Z,10.53
2023-04-09T16:11:52.558Z,10.50
2023-04-09T16:14:19.379Z,11.93
2023-04-09T16:16:49.982Z,9.30
2023-04-09T16:19:21.387Z,8.53
2023-04-09T16:21:49.157Z,9.47
2023-04-09T16:24:16.120Z,8.57
2023-04-09T16:26:44.971Z,9.90
2023-04-09T16:29:12.925Z,10.50
2023-04-09T16:31:42.304Z,10.40
2023-04-09T16:34:09.275Z,10.27
2023-04-09T16:36:37.294Z,12.27
2023-04-09T16:39:04.992Z,9.80
2023-04-09T16:41:32.918Z,10.23
2023-04-09T16:44:00.419Z,10.27
2023-04-09T16:46:27.375Z,12.10
2023-04-09T16:48:54.500Z,12.63
2023-04-09T16:51:21.781Z,11.97
2023-04-09T16:53:48.632Z,13.30
2023-04-09T16:56:16.762Z,10.60
2023-04-09T16:58:43.940Z,10.53
2023-04-09T17:01:10.936Z,10.45
2023-04-09T17:03:38.154Z,11.70
2023-04-09T17:06:05.404Z,11.98
2023-04-09T17:08:32.209Z,11.13
2023-04-09T17:11:02.441Z,18.83
2023-04-09T17:13:34.284Z,10.73
2023-04-09T17:16:02.637Z,12.80
2023-04-09T17:18:30.191Z,12.63
2023-04-09T17:20:57.227Z,12.65
2023-04-09T17:23:24.132Z,12.20
2023-04-09T17:25:50.959Z,11.98
2023-04-09T17:28:18.927Z,13.68
2023-04-09T17:30:46.046Z,14.02
2023-04-09T17:33:12.969Z,13.90
2023-04-09T17:35:39.962Z,12.85
2023-04-09T17:38:06.842Z,12.20
2023-04-09T17:40:33.764Z,10.98
2023-04-09T17:43:00.838Z,13.43
2023-04-09T17:45:27.618Z,12.52
2023-04-09T17:47:54.549Z,11.55
2023-04-09T17:50:21.482Z,11.23
2023-04-09T17:52:48.615Z,10.75
2023-04-09T17:55:15.530Z,10.82
2023-04-09T17:57:42.917Z,11.95
2023-04-09T18:00:11.098Z,10.40
2023-04-09T18:02:38.246Z,11.23
2023-04-09T18:05:05.612Z,10.95
2023-04-09T18:07:35.510Z,12.32
2023-04-09T18:10:05.499Z,11.88
2023-04-09T18:12:32.918Z,14.02
2023-04-09T18:14:59.705Z,11.95
2023-04-09T18:17:26.747Z,11.73
2023-04-09T18:19:54.571Z,10.55
2023-04-09T18:22:21.461Z,12.00
2023-04-09T18:24:48.212Z,10.13
2023-04-09T18:27:15.104Z,11.60
2023-04-09T18:29:41.908Z,13.23
2023-04-09T18:32:08.746Z,12.07
2023-04-09T18:34:36.371Z,13.38
2023-04-09T18:37:03.215Z,11.57
2023-04-09T18:39:30.900Z,13.85
2023-04-09T18:41:58.004Z,12.55
2023-04-09T18:44:24.857Z,12.77
2023-04-09T18:46:52.304Z,12.77
2023-04-09T18:49:19.231Z,12.60
2023-04-09T18:51:46.677Z,13.55
2023-04-09T18:54:13.537Z,12.48
2023-04-09T18:56:40.590Z,13.68
2023-04-09T18:59:07.440Z,14.75
2023-04-09T19:01:34.417Z,13.20
2023-04-09T19:04:01.592Z,12.73
2023-04-09T19:06:28.513Z,14.20
2023-04-09T19:08:58.296Z,12.43
2023-04-09T19:11:26.085Z,17.10
2023-04-09T19:13:53.493Z,13.57
2023-04-09T19:16:21.031Z,13.90
2023-04-09T19:18:48.236Z,12.90
2023-04-09T19:21:15.169Z,16.83
2023-04-09T19:23:45.699Z,9.82
2023-04-09T19:26:12.552Z,15.13
2023-04-09T19:28:39.405Z,12.40
2023-04-09T19:31:06.823Z,11.98
2023-04-09T19:33:33.784Z,13.13
2023-04-09T19:36:00.874Z,12.55
2023-04-09T19:38:27.908Z,14.15
2023-04-09T19:40:54.805Z,13.25
2023-04-09T19:43:21.886Z,16.67
2023-04-09T19:45:48.838Z,14.27
2023-04-09T19:48:15.959Z,13.35
2023-04-09T19:50:43.833Z,13.45
2023-04-09T19:53:11.105Z,14.18
2023-04-09T19:55:38.451Z,15.10
2023-04-09T19:58:06.458Z,13.07
2023-04-09T20:00:34.491Z,14.38
2023-04-09T20:03:02.940Z,14.95
2023-04-09T20:05:30.181Z,12.90
2023-04-09T20:07:57.091Z,17.40
2023-04-09T20:10:33.121Z,14.00
2023-04-09T20:13:00.197Z,14.07
2023-04-09T20:15:27.213Z,15.77
2023-04-09T20:17:54.249Z,17.33
2023-04-09T20:20:21.447Z,14.73
2023-04-09T20:22:55.750Z,15.60
2023-04-09T20:25:24.770Z,20.30
2023-04-09T20:27:55.217Z,17.02
2023-04-09T20:30:22.722Z,19.35
2023-04-09T20:32:49.848Z,14.57
2023-04-09T20:35:46.490Z,15.35
2023-04-09T20:38:13.706Z,17.92
2023-04-09T20:40:40.539Z,18.95
2023-04-09T20:43:07.457Z,17.35
2023-04-09T20:45:34.463Z,16.35
2023-04-09T20:48:01.560Z,17.20
2023-04-09T20:50:30.045Z,17.73
2023-04-09T20:52:57.840Z,16.80
2023-04-09T20:55:25.840Z,18.10
2023-04-09T20:57:55.515Z,16.85
2023-04-09T21:00:31.341Z,19.05
2023-04-09T21:02:58.387Z,17.23
2023-04-09T21:05:25.405Z,22.60
2023-04-09T21:07:53.139Z,18.77
2023-04-09T21:10:20.483Z,19.58
2023-04-09T21:12:47.444Z,19.75
2023-04-09T21:15:14.461Z,17.65
2023-04-09T21:17:41.517Z,19.30
2023-04-09T21:20:09.019Z,17.08
2023-04-09T21:22:36.074Z,20.02
2023-04-09T21:25:03.578Z,15.85
2023-04-09T21:27:31.210Z,19.30
2023-04-09T21:29:58.267Z,15.50
2023-04-09T21:32:25.425Z,17.73
2023-04-09T21:34:52.375Z,21.27
2023-04-09T21:37:19.319Z,17.40
2023-04-09T21:39:48.285Z,16.90
2023-04-09T21:42:15.225Z,15.85
2023-04-09T21:44:42.267Z,18.85
2023-04-09T21:47:09.388Z,16.13
2023-04-09T21:49:40.195Z,16.20
2023-04-09T21:52:14.133Z,20.15
2023-04-09T21:54:42.313Z,15.35
2023-04-09T21:57:09.439Z,16.15
2023-04-09T21:59:45.052Z,15.35
2023-04-09T22:02:15.034Z,14.75
2023-04-09T22:04:44.859Z,15.98
2023-04-09T22:07:14.908Z,15.57
2023-04-09T22:09:41.900Z,16.38
2023-04-09T22:12:08.881Z,16.30
2023-04-09T22:14:35.896Z,15.93
2023-04-09T22:17:03.118Z,14.75
2023-04-09T22:19:32.013Z,15.20
2023-04-09T22:21:59.891Z,15.95
2023-04-09T22:24:28.695Z,15.48
2023-04-09T22:26:59.873Z,17.05
2023-04-09T22:29:27.828Z,17.55
2023-04-09T22:31:55.878Z,15.18
2023-04-09T22:34:22.918Z,17.55
2023-04-09T22:36:49.975Z,16.60
2023-04-09T22:39:17.202Z,18.80
2023-04-09T22:41:44.095Z,16.80
2023-04-09T22:44:11.221Z,16.45
2023-04-09T22:46:38.258Z,18.85
2023-04-09T22:49:06.252Z,15.95
2023-04-09T22:51:36.571Z,31.55
2023-04-09T22:54:03.486Z,18.08
2023-04-09T22:56:31.758Z,16.15
2023-04-09T22:58:59.013Z,15.52
2023-04-09T23:01:26.805Z,17.88
2023-04-09T23:03:53.916Z,20.23
2023-04-09T23:06:22.364Z,17.35
2023-04-09T23:08:49.486Z,20.25
2023-04-09T23:11:16.650Z,17.60
2023-04-09T23:13:43.497Z,18.45
2023-04-09T23:16:11.224Z,16.95
2023-04-09T23:18:38.112Z,17.08
2023-04-09T23:21:20.814Z,17.00
2023-04-09T23:23:47.837Z,19.02
2023-04-09T23:26:14.754Z,20.02
2023-04-09T23:28:41.728Z,16.60
2023-04-09T23:31:08.830Z,18.70
2023-04-09T23:33:35.883Z,19.40
2023-04-09T23:36:03.026Z,19.42
2023-04-09T23:38:29.998Z,19.02
2023-04-09T23:40:56.922Z,21.90
2023-04-09T23:43:26.309Z,19.88
2023-04-09T23:45:53.269Z,19.23
2023-04-09T23:51:04.727Z,16.80
2023-04-09T23:53:34.710Z,18.25
2023-04-09T23:56:01.883Z,19.48
2023-04-09T23:58:28.792Z,19.52
